Time,TemperatureF,DewpointF,PressureIn,WindDirection,WindDirectionDegrees,WindSpeedMPH,WindSpeedGustMPH,Humidity,HourlyPrecipIn,Conditions,Clouds,dailyrainin,SoftwareType,DateUTC
2013-07-07 00:01:00,78.4,74.9,30.13,East,82,2.0,4.0,89,0.00,,CLR,0.00,VWS V14.01,2013-07-07 04:01:00,
2013-07-07 00:03:00,78.4,74.9,30.13,East,84,0.0,4.0,89,0.00,,CLR,0.00,VWS V14.01,2013-07-07 04:03:00,
2013-07-07 00:04:00,78.4,74.9,30.13,East,88,4.0,4.0,89,0.00,,CLR,0.00,VWS V14.01,2013-07-07 04:04:00,
2013-07-07 00:09:00,78.2,74.7,30.13,ESE,109,2.0,6.0,89,0.00,,CLR,0.00,VWS V14.01,2013-07-07 04:09:00,
2013-07-07 00:14:00,78.1,74.6,30.12,East,100,2.0,4.0,89,0.00,,CLR,0.00,VWS V14.01,2013-07-07 04:14:00,
2013-07-07 00:19:00,78.1,74.6,30.12,East,100,0.0,4.0,89,0.00,,CLR,0.00,VWS V14.01,2013-07-07 04:19:00,
2013-07-07 00:24:00,78.1,74.6,30.12,ESE,109,0.0,4.0,89,0.00,,CLR,0.00,VWS V14.01,2013-07-07 04:24:00,
2013-07-07 00:29:00,78.1,74.6,30.12,ESE,122,4.0,6.0,89,0.00,,CLR,0.00,VWS V14.01,2013-07-07 04:29:00,
2013-07-07 00:34:00,78.0,74.5,30.12,ESE,109,2.0,6.0,89,0.00,,CLR,0.00,VWS V14.01,2013-07-07 04:34:00,
2013-07-07 00:39:00,77.9,74.4,30.12,ESE,111,2.0,4.0,89,0.00,,CLR,0.00,VWS V14.01,2013-07-07 04:39:00,
2013-07-07 00:44:00,78.0,74.5,30.12,East,97,0.0,4.0,89,0.00,,CLR,0.00,VWS V14.01,2013-07-07 04:44:00,
2013-07-07 00:50:00,78.0,74.5,30.12,ESE,109,2.0,2.0,89,0.00,,CLR,0.00,VWS V14.01,2013-07-07 04:50:00,
2013-07-07 00:55:00,77.9,74.4,30.12,ESE,113,2.0,2.0,89,0.00,,CLR,0.00,VWS V14.01,2013-07-07 04:55:00,
2013-07-07 01:00:00,77.7,74.5,30.12,ESE,113,0.0,2.0,90,0.00,,CLR,0.00,VWS V14.01,2013-07-07 05:00:00,
2013-07-07 01:05:00,77.6,74.4,30.11,ESE,113,0.0,2.0,90,0.00,,CLR,0.00,VWS V14.01,2013-07-07 05:05:00,
2013-07-07 01:10:00,77.6,74.4,30.12,ESE,107,0.0,0.0,90,0.00,,CLR,0.00,VWS V14.01,2013-07-07 05:10:00,
2013-07-07 01:15:00,77.5,74.3,30.12,ESE,105,0.0,0.0,90,0.00,,CLR,0.00,VWS V14.01,2013-07-07 05:15:00,
2013-07-07 01:20:00,77.4,74.6,30.12,ESE,105,2.0,2.0,91,0.00,,CLR,0.00,VWS V14.01,2013-07-07 05:20:00,
2013-07-07 01:25:00,77.4,74.6,30.12,ESE,113,2.0,6.0,91,0.00,,CLR,0.00,VWS V14.01,2013-07-07 05:25:00,
2013-07-07 01:30:00,77.3,74.5,30.12,East,99,0.0,6.0,91,0.00,,CLR,0.00,VWS V14.01,2013-07-07 05:30:00,
2013-07-07 01:36:00,77.4,74.6,30.11,ESE,103,0.0,2.0,91,0.00,,CLR,0.00,VWS V14.01,2013-07-07 05:36:00,
2013-07-07 01:41:00,77.4,74.6,30.11,East,97,2.0,2.0,91,0.00,,CLR,0.00,VWS V14.01,2013-07-07 05:41:00,
2013-07-07 01:46:00,77.3,74.5,30.11,ESE,107,0.0,2.0,91,0.00,,CLR,0.00,VWS V14.01,2013-07-07 05:46:00,
2013-07-07 01:51:00,77.3,74.5,30.10,ESE,114,2.0,4.0,91,0.00,,CLR,0.00,VWS V14.01,2013-07-07 05:51:00,
2013-07-07 01:56:00,77.3,74.5,30.11,ESE,107,0.0,2.0,91,0.00,,CLR,0.00,VWS V14.01,2013-07-07 05:56:00,
2013-07-07 02:01:00,77.3,74.5,30.10,ESE,117,2.0,6.0,91,0.00,,CLR,0.00,VWS V14.01,2013-07-07 06:01:00,
2013-07-07 02:06:00,77.2,74.4,30.10,ESE,116,0.0,2.0,91,0.00,,CLR,0.00,VWS V14.01,2013-07-07 06:06:00,
2013-07-07 02:11:00,77.1,74.3,30.10,ESE,116,0.0,2.0,91,0.00,,CLR,0.00,VWS V14.01,2013-07-07 06:11:00,
2013-07-07 02:16:00,77.1,74.3,30.10,ESE,116,0.0,2.0,91,0.00,,CLR,0.00,VWS V14.01,2013-07-07 06:16:00,
2013-07-07 02:22:00,77.0,74.2,30.10,ESE,116,0.0,0.0,91,0.00,,CLR,0.00,VWS V14.01,2013-07-07 06:22:00,
2013-07-07 02:27:00,76.9,74.4,30.10,ESE,116,2.0,2.0,92,0.00,,CLR,0.00,VWS V14.01,2013-07-07 06:27:00,
2013-07-07 02:32:00,76.7,74.2,30.10,ESE,116,0.0,0.0,92,0.00,,CLR,0.00,VWS V14.01,2013-07-07 06:32:00,
2013-07-07 02:37:00,76.6,74.1,30.10,ESE,116,0.0,0.0,92,0.00,,CLR,0.00,VWS V14.01,2013-07-07 06:37:00,
2013-07-07 02:42:00,76.5,74.0,30.10,ESE,116,0.0,0.0,92,0.00,,CLR,0.00,VWS V14.01,2013-07-07 06:42:00,
2013-07-07 02:47:00,76.4,73.9,30.10,ESE,116,0.0,0.0,92,0.00,,CLR,0.00,VWS V14.01,2013-07-07 06:47:00,
2013-07-07 02:52:00,76.2,74.0,30.09,ESE,116,0.0,0.0,93,0.00,,CLR,0.00,VWS V14.01,2013-07-07 06:52:00,
2013-07-07 02:57:00,76.1,73.9,30.09,ESE,116,0.0,0.0,93,0.00,,CLR,0.00,VWS V14.01,2013-07-07 06:57:00,
2013-07-07 03:02:00,76.0,74.2,30.09,ESE,116,0.0,2.0,94,0.00,,CLR,0.00,VWS V14.01,2013-07-07 07:02:00,
2013-07-07 03:08:00,75.9,74.1,30.09,ESE,116,0.0,2.0,94,0.00,,CLR,0.00,VWS V14.01,2013-07-07 07:08:00,
2013-07-07 03:13:00,75.8,73.9,30.09,ESE,116,0.0,4.0,94,0.00,,CLR,0.00,VWS V14.01,2013-07-07 07:13:00,
2013-07-07 03:18:00,75.8,73.9,30.10,ESE,116,0.0,2.0,94,0.00,,CLR,0.00,VWS V14.01,2013-07-07 07:18:00,
2013-07-07 03:23:00,75.8,73.9,30.09,ESE,116,0.0,0.0,94,0.00,,CLR,0.00,VWS V14.01,2013-07-07 07:23:00,
2013-07-07 03:28:00,75.7,73.8,30.09,ESE,113,0.0,4.0,94,0.00,,CLR,0.00,VWS V14.01,2013-07-07 07:28:00,
2013-07-07 03:33:00,75.7,73.8,30.09,ESE,113,0.0,2.0,94,0.00,,CLR,0.00,VWS V14.01,2013-07-07 07:33:00,
2013-07-07 03:38:00,75.8,73.9,30.09,ESE,113,0.0,4.0,94,0.00,,CLR,0.00,VWS V14.01,2013-07-07 07:38:00,
2013-07-07 03:43:00,75.9,74.1,30.09,ESE,116,2.0,4.0,94,0.00,,CLR,0.00,VWS V14.01,2013-07-07 07:43:00,
2013-07-07 03:49:00,75.8,73.6,30.09,ESE,104,2.0,4.0,93,0.00,,CLR,0.00,VWS V14.01,2013-07-07 07:49:00,
2013-07-07 03:54:00,75.9,73.7,30.09,SE,126,4.0,6.0,93,0.00,,CLR,0.00,VWS V14.01,2013-07-07 07:54:00,
2013-07-07 03:59:00,76.0,73.8,30.09,East,97,0.0,4.0,93,0.00,,CLR,0.00,VWS V14.01,2013-07-07 07:59:00,
2013-07-07 04:04:00,76.1,73.9,30.08,East,101,0.0,4.0,93,0.00,,FEW250,0.00,VWS V14.01,2013-07-07 08:04:00,
2013-07-07 04:09:00,76.0,73.8,30.08,East,101,0.0,2.0,93,0.00,,FEW250,0.00,VWS V14.01,2013-07-07 08:09:00,
2013-07-07 04:14:00,76.0,73.8,30.08,East,101,0.0,2.0,93,0.00,,FEW250,0.00,VWS V14.01,2013-07-07 08:14:00,
2013-07-07 04:19:00,75.8,73.6,30.09,East,101,0.0,0.0,93,0.00,,FEW250,0.00,VWS V14.01,2013-07-07 08:19:00,
2013-07-07 04:24:00,75.7,73.5,30.09,East,101,0.0,0.0,93,0.00,,FEW250,0.00,VWS V14.01,2013-07-07 08:24:00,
2013-07-07 04:29:00,75.6,73.4,30.09,East,101,0.0,0.0,93,0.00,,FEW250,0.00,VWS V14.01,2013-07-07 08:29:00,
2013-07-07 04:35:00,75.4,73.2,30.09,East,101,0.0,0.0,93,0.00,,FEW250,0.00,VWS V14.01,2013-07-07 08:35:00,
2013-07-07 04:40:00,75.3,73.1,30.09,East,101,0.0,0.0,93,0.00,,FEW250,0.00,VWS V14.01,2013-07-07 08:40:00,
2013-07-07 04:45:00,75.1,73.3,30.09,East,101,0.0,0.0,94,0.00,,FEW250,0.00,VWS V14.01,2013-07-07 08:45:00,
2013-07-07 04:50:00,75.0,73.2,30.08,East,101,0.0,0.0,94,0.00,,FEW250,0.00,VWS V14.01,2013-07-07 08:50:00,
2013-07-07 04:55:00,74.8,73.0,30.08,East,101,0.0,0.0,94,0.00,,FEW250,0.00,VWS V14.01,2013-07-07 08:55:00,
2013-07-07 05:00:00,74.6,72.8,30.08,East,101,0.0,0.0,94,0.00,,CLR,0.00,VWS V14.01,2013-07-07 09:00:00,
2013-07-07 05:05:00,74.5,73.0,30.08,East,101,0.0,0.0,95,0.00,,CLR,0.00,VWS V14.01,2013-07-07 09:05:00,
2013-07-07 05:10:00,74.4,72.9,30.08,East,101,0.0,0.0,95,0.00,,CLR,0.00,VWS V14.01,2013-07-07 09:10:00,
2013-07-07 05:16:00,74.3,72.8,30.08,East,101,0.0,0.0,95,0.00,,CLR,0.00,VWS V14.01,2013-07-07 09:16:00,
2013-07-07 05:21:00,74.2,72.7,30.08,East,101,0.0,0.0,95,0.00,,CLR,0.00,VWS V14.01,2013-07-07 09:21:00,
2013-07-07 05:26:00,74.2,72.7,30.08,East,101,0.0,0.0,95,0.00,,CLR,0.00,VWS V14.01,2013-07-07 09:26:00,
2013-07-07 05:31:00,74.1,72.9,30.08,East,101,0.0,0.0,96,0.00,,CLR,0.00,VWS V14.01,2013-07-07 09:31:00,
2013-07-07 05:36:00,74.1,72.9,30.08,East,101,0.0,0.0,96,0.00,,CLR,0.00,VWS V14.01,2013-07-07 09:36:00,
2013-07-07 05:41:00,74.0,72.8,30.08,East,101,0.0,0.0,96,0.00,,CLR,0.00,VWS V14.01,2013-07-07 09:41:00,
2013-07-07 05:46:00,74.0,72.8,30.08,East,101,0.0,0.0,96,0.00,,CLR,0.00,VWS V14.01,2013-07-07 09:46:00,
2013-07-07 05:51:00,73.9,72.7,30.09,East,101,0.0,0.0,96,0.00,,CLR,0.00,VWS V14.01,2013-07-07 09:51:00,
2013-07-07 05:56:00,73.8,72.6,30.09,East,101,0.0,0.0,96,0.00,,CLR,0.00,VWS V14.01,2013-07-07 09:56:00,
2013-07-07 06:02:00,73.8,72.6,30.09,East,101,0.0,0.0,96,0.00,,CLR,0.00,VWS V14.01,2013-07-07 10:02:00,
2013-07-07 06:07:00,73.8,72.6,30.09,East,101,0.0,0.0,96,0.00,,CLR,0.00,VWS V14.01,2013-07-07 10:07:00,
2013-07-07 06:12:00,73.7,72.5,30.09,East,101,0.0,0.0,96,0.00,,CLR,0.00,VWS V14.01,2013-07-07 10:12:00,
2013-07-07 06:17:00,73.7,72.5,30.09,East,101,0.0,0.0,96,0.00,,CLR,0.00,VWS V14.01,2013-07-07 10:17:00,
2013-07-07 06:22:00,73.6,72.4,30.09,East,101,0.0,0.0,96,0.00,,CLR,0.00,VWS V14.01,2013-07-07 10:22:00,
2013-07-07 06:27:00,73.6,72.4,30.09,East,101,0.0,0.0,96,0.00,,CLR,0.00,VWS V14.01,2013-07-07 10:27:00,
2013-07-07 06:32:00,73.5,72.3,30.09,East,101,0.0,0.0,96,0.00,,CLR,0.00,VWS V14.01,2013-07-07 10:32:00,
2013-07-07 06:37:00,73.5,72.6,30.09,East,101,0.0,0.0,97,0.00,,CLR,0.00,VWS V14.01,2013-07-07 10:37:00,
2013-07-07 06:42:00,73.5,72.6,30.09,East,101,0.0,0.0,97,0.00,,CLR,0.00,VWS V14.01,2013-07-07 10:42:00,
2013-07-07 06:48:00,73.5,72.6,30.09,East,101,0.0,0.0,97,0.00,,CLR,0.00,VWS V14.01,2013-07-07 10:48:00,
2013-07-07 06:53:00,73.5,72.6,30.10,East,101,0.0,0.0,97,0.00,,CLR,0.00,VWS V14.01,2013-07-07 10:53:00,
2013-07-07 06:58:00,73.5,72.6,30.10,East,101,0.0,0.0,97,0.00,,CLR,0.00,VWS V14.01,2013-07-07 10:58:00,
2013-07-07 07:03:00,73.5,72.6,30.10,East,101,0.0,0.0,97,0.00,,CLR,0.00,VWS V14.01,2013-07-07 11:03:00,
2013-07-07 07:08:00,73.5,72.6,30.10,East,101,0.0,0.0,97,0.00,,CLR,0.00,VWS V14.01,2013-07-07 11:08:00,
2013-07-07 07:13:00,73.7,73.1,30.10,East,101,0.0,2.0,98,0.00,,CLR,0.00,VWS V14.01,2013-07-07 11:13:00,
2013-07-07 07:18:00,73.9,73.3,30.10,East,101,0.0,0.0,98,0.00,,CLR,0.00,VWS V14.01,2013-07-07 11:18:00,
2013-07-07 07:23:00,74.1,73.5,30.10,East,101,0.0,0.0,98,0.00,,CLR,0.00,VWS V14.01,2013-07-07 11:23:00,
2013-07-07 07:29:00,74.3,73.7,30.10,East,101,0.0,0.0,98,0.00,,CLR,0.00,VWS V14.01,2013-07-07 11:29:00,
2013-07-07 07:34:00,74.5,73.9,30.10,East,101,0.0,0.0,98,0.00,,CLR,0.00,VWS V14.01,2013-07-07 11:34:00,
2013-07-07 07:39:00,74.7,74.1,30.10,East,101,0.0,4.0,98,0.00,,CLR,0.00,VWS V14.01,2013-07-07 11:39:00,
2013-07-07 07:44:00,75.1,74.5,30.10,ESE,116,6.0,6.0,98,0.00,,CLR,0.00,VWS V14.01,2013-07-07 11:44:00,
2013-07-07 07:49:00,75.6,75.0,30.11,ESE,103,0.0,6.0,98,0.00,,CLR,0.00,VWS V14.01,2013-07-07 11:49:00,
2013-07-07 07:54:00,76.0,75.4,30.11,ESE,103,0.0,2.0,98,0.00,,CLR,0.00,VWS V14.01,2013-07-07 11:54:00,
2013-07-07 07:59:00,76.6,75.7,30.11,SE,130,2.0,4.0,97,0.00,,CLR,0.00,VWS V14.01,2013-07-07 11:59:00,
2013-07-07 08:04:00,77.3,75.8,30.11,East,80,0.0,6.0,95,0.00,,CLR,0.00,VWS V14.01,2013-07-07 12:04:00,
2013-07-07 08:09:00,78.1,75.9,30.12,ESE,119,0.0,6.0,93,0.00,,CLR,0.00,VWS V14.01,2013-07-07 12:09:00,
2013-07-07 08:14:00,78.8,75.9,30.12,East,93,0.0,8.0,91,0.00,,CLR,0.00,VWS V14.01,2013-07-07 12:14:00,
2013-07-07 08:19:00,79.6,76.4,30.12,SE,130,4.0,6.0,90,0.00,,CLR,0.00,VWS V14.01,2013-07-07 12:19:00,
2013-07-07 08:24:00,80.4,76.9,30.12,SE,124,0.0,4.0,89,0.00,,CLR,0.00,VWS V14.01,2013-07-07 12:24:00,
2013-07-07 08:29:00,81.3,77.1,30.12,East,84,4.0,6.0,87,0.00,,CLR,0.00,VWS V14.01,2013-07-07 12:29:00,
2013-07-07 08:34:00,81.8,76.8,30.12,ESE,103,4.0,6.0,85,0.00,,CLR,0.00,VWS V14.01,2013-07-07 12:34:00,
2013-07-07 08:39:00,82.1,76.8,30.12,East,80,2.0,8.0,84,0.00,,CLR,0.00,VWS V14.01,2013-07-07 12:39:00,
2013-07-07 08:44:00,82.4,76.4,30.12,East,93,4.0,4.0,82,0.00,,CLR,0.00,VWS V14.01,2013-07-07 12:44:00,
2013-07-07 08:50:00,82.5,76.8,30.12,East,91,4.0,10.0,83,0.00,,CLR,0.00,VWS V14.01,2013-07-07 12:50:00,
2013-07-07 08:55:00,82.6,76.6,30.12,East,99,4.0,4.0,82,0.00,,CLR,0.00,VWS V14.01,2013-07-07 12:55:00,
2013-07-07 09:00:00,82.7,77.0,30.13,East,95,4.0,6.0,83,0.00,,CLR,0.00,VWS V14.01,2013-07-07 13:00:00,
2013-07-07 09:05:00,83.1,76.7,30.13,ESE,123,4.0,6.0,81,0.00,,CLR,0.00,VWS V14.01,2013-07-07 13:05:00,
2013-07-07 09:10:00,83.3,76.5,30.13,East,99,4.0,10.0,80,0.00,,CLR,0.00,VWS V14.01,2013-07-07 13:10:00,
2013-07-07 09:15:00,83.2,76.4,30.13,ENE,72,0.0,6.0,80,0.00,,CLR,0.00,VWS V14.01,2013-07-07 13:15:00,
2013-07-07 09:20:00,83.0,75.8,30.13,ENE,67,8.0,10.0,79,0.00,,CLR,0.00,VWS V14.01,2013-07-07 13:20:00,
2013-07-07 09:25:00,83.0,76.2,30.13,SE,131,8.0,14.0,80,0.00,,CLR,0.00,VWS V14.01,2013-07-07 13:25:00,
2013-07-07 09:26:00,83.0,76.2,30.13,East,80,10.0,14.0,80,0.00,,CLR,0.00,VWS V14.01,2013-07-07 13:26:00,
2013-07-07 09:31:00,83.0,76.2,30.13,ESE,115,4.0,6.0,80,0.00,,CLR,0.00,VWS V14.01,2013-07-07 13:31:00,
2013-07-07 09:36:00,83.0,76.6,30.13,East,101,8.0,10.0,81,0.00,,CLR,0.00,VWS V14.01,2013-07-07 13:36:00,
2013-07-07 09:41:00,83.6,76.4,30.13,East,90,6.0,14.0,79,0.00,,CLR,0.00,VWS V14.01,2013-07-07 13:41:00,
2013-07-07 09:46:00,84.1,76.5,30.13,East,95,6.0,8.0,78,0.00,,CLR,0.00,VWS V14.01,2013-07-07 13:46:00,
2013-07-07 09:51:00,84.7,77.5,30.13,East,88,4.0,8.0,79,0.00,,CLR,0.00,VWS V14.01,2013-07-07 13:51:00,
2013-07-07 09:57:00,84.6,77.0,30.13,NE,43,4.0,10.0,78,0.00,,CLR,0.00,VWS V14.01,2013-07-07 13:57:00,
2013-07-07 10:02:00,84.1,76.1,30.13,SE,127,8.0,8.0,77,0.00,,FEW020,0.00,VWS V14.01,2013-07-07 14:02:00,
2013-07-07 10:07:00,84.3,75.9,30.13,ESE,107,8.0,14.0,76,0.00,,FEW020,0.00,VWS V14.01,2013-07-07 14:07:00,
2013-07-07 10:12:00,84.8,76.0,30.14,East,90,10.0,12.0,75,0.00,,FEW020,0.00,VWS V14.01,2013-07-07 14:12:00,
2013-07-07 10:17:00,84.5,75.7,30.14,East,99,4.0,8.0,75,0.00,,FEW020,0.00,VWS V14.01,2013-07-07 14:17:00,
2013-07-07 10:22:00,84.0,76.0,30.14,ESE,109,6.0,14.0,77,0.00,,FEW020,0.00,VWS V14.01,2013-07-07 14:22:00,
2013-07-07 10:27:00,83.9,76.3,30.13,East,100,4.0,6.0,78,0.00,,FEW020,0.00,VWS V14.01,2013-07-07 14:27:00,
2013-07-07 10:33:00,84.2,75.4,30.14,SE,124,16.0,16.0,75,0.00,,FEW020,0.00,VWS V14.01,2013-07-07 14:33:00,
2013-07-07 10:38:00,84.3,75.9,30.14,ESE,118,4.0,10.0,76,0.00,,FEW020,0.00,VWS V14.01,2013-07-07 14:38:00,
2013-07-07 10:43:00,84.5,75.3,30.14,ESE,105,4.0,10.0,74,0.00,,FEW020,0.00,VWS V14.01,2013-07-07 14:43:00,
2013-07-07 10:48:00,84.7,75.9,30.14,East,92,8.0,12.0,75,0.00,,FEW020,0.00,VWS V14.01,2013-07-07 14:48:00,
2013-07-07 10:53:00,85.3,75.7,30.14,East,99,8.0,14.0,73,0.00,,FEW020,0.00,VWS V14.01,2013-07-07 14:53:00,
2013-07-07 10:58:00,86.3,76.2,30.14,SSE,155,6.0,12.0,72,0.00,,FEW020,0.00,VWS V14.01,2013-07-07 14:58:00,
2013-07-07 11:03:00,87.0,75.6,30.14,ESE,109,2.0,6.0,69,0.00,,CLR,0.00,VWS V14.01,2013-07-07 15:03:00,
2013-07-07 11:05:00,87.1,75.3,30.14,East,91,4.0,6.0,68,0.00,,CLR,0.00,VWS V14.01,2013-07-07 15:05:00,
2013-07-07 11:10:00,87.5,76.1,30.13,ENE,70,0.0,6.0,69,0.00,,CLR,0.00,VWS V14.01,2013-07-07 15:10:00,
2013-07-07 11:15:00,87.7,74.9,30.13,East,101,2.0,6.0,66,0.00,,CLR,0.00,VWS V14.01,2013-07-07 15:15:00,
2013-07-07 11:20:00,87.6,75.7,30.13,East,96,2.0,4.0,68,0.00,,CLR,0.00,VWS V14.01,2013-07-07 15:20:00,
2013-07-07 11:25:00,87.9,76.0,30.14,SSE,155,6.0,10.0,68,0.00,,CLR,0.00,VWS V14.01,2013-07-07 15:25:00,
2013-07-07 11:30:00,88.4,76.9,30.14,East,94,2.0,4.0,69,0.00,,CLR,0.00,VWS V14.01,2013-07-07 15:30:00,
2013-07-07 11:35:00,88.8,76.4,30.14,ESE,120,4.0,8.0,67,0.00,,CLR,0.00,VWS V14.01,2013-07-07 15:35:00,
2013-07-07 11:41:00,89.0,74.8,30.13,ESE,103,6.0,10.0,63,0.00,,CLR,0.00,VWS V14.01,2013-07-07 15:41:00,
2013-07-07 11:46:00,88.4,75.6,30.13,ESE,120,6.0,6.0,66,0.00,,CLR,0.00,VWS V14.01,2013-07-07 15:46:00,
2013-07-07 11:51:00,88.0,75.2,30.13,ESE,118,8.0,8.0,66,0.00,,CLR,0.00,VWS V14.01,2013-07-07 15:51:00,
2013-07-07 11:56:00,87.6,75.7,30.13,ESE,111,2.0,6.0,68,0.00,,CLR,0.00,VWS V14.01,2013-07-07 15:56:00,
2013-07-07 12:01:00,87.2,74.5,30.13,East,101,6.0,16.0,66,0.00,,SCT070,0.00,VWS V14.01,2013-07-07 16:01:00,
2013-07-07 12:06:00,86.6,75.2,30.13,ENE,59,4.0,6.0,69,0.00,,SCT070,0.00,VWS V14.01,2013-07-07 16:06:00,
2013-07-07 12:11:00,87.1,75.7,30.13,SE,132,2.0,4.0,69,0.00,,SCT070,0.00,VWS V14.01,2013-07-07 16:11:00,
2013-07-07 12:16:00,87.1,74.4,30.13,SE,136,6.0,16.0,66,0.00,,SCT070,0.00,VWS V14.01,2013-07-07 16:16:00,
2013-07-07 12:22:00,87.8,75.9,30.13,East,84,4.0,12.0,68,0.00,,SCT070,0.00,VWS V14.01,2013-07-07 16:22:00,
2013-07-07 12:27:00,88.6,74.4,30.12,ESE,122,8.0,16.0,63,0.00,,SCT070,0.00,VWS V14.01,2013-07-07 16:27:00,
2013-07-07 12:32:00,88.6,73.4,30.13,East,97,10.0,20.0,61,0.00,,SCT070,0.00,VWS V14.01,2013-07-07 16:32:00,
2013-07-07 12:37:00,88.2,74.0,30.12,ENE,76,4.0,20.0,63,0.00,,SCT070,0.00,VWS V14.01,2013-07-07 16:37:00,
2013-07-07 12:42:00,88.0,73.8,30.12,ESE,103,2.0,18.0,63,0.00,,SCT070,0.00,VWS V14.01,2013-07-07 16:42:00,
2013-07-07 12:47:00,88.0,75.2,30.12,ESE,110,16.0,16.0,66,0.00,,SCT070,0.00,VWS V14.01,2013-07-07 16:47:00,
2013-07-07 12:52:00,88.1,74.9,30.12,SE,134,6.0,14.0,65,0.00,,SCT070,0.00,VWS V14.01,2013-07-07 16:52:00,
2013-07-07 12:57:00,88.7,75.9,30.12,SE,132,6.0,10.0,66,0.00,,SCT070,0.00,VWS V14.01,2013-07-07 16:57:00,
2013-07-07 13:03:00,89.0,75.2,30.12,East,83,4.0,20.0,64,0.00,,SCT070,0.00,VWS V14.01,2013-07-07 17:03:00,
2013-07-07 13:08:00,88.4,75.1,30.12,ENE,72,4.0,18.0,65,0.00,,SCT070,0.00,VWS V14.01,2013-07-07 17:08:00,
2013-07-07 13:13:00,88.7,75.9,30.11,SE,134,8.0,16.0,66,0.00,,SCT070,0.00,VWS V14.01,2013-07-07 17:13:00,
2013-07-07 13:18:00,89.2,75.9,30.11,ESE,108,6.0,14.0,65,0.00,,SCT070,0.00,VWS V14.01,2013-07-07 17:18:00,
2013-07-07 13:23:00,89.0,74.8,30.11,SE,134,8.0,14.0,63,0.00,,SCT070,0.00,VWS V14.01,2013-07-07 17:23:00,
2013-07-07 13:28:00,88.9,76.1,30.11,SSE,148,4.0,16.0,66,0.00,,SCT070,0.00,VWS V14.01,2013-07-07 17:28:00,
2013-07-07 13:33:00,89.5,74.3,30.11,East,99,14.0,14.0,61,0.00,,SCT070,0.00,VWS V14.01,2013-07-07 17:33:00,
2013-07-07 13:38:00,90.1,73.3,30.10,ESE,114,10.0,18.0,58,0.00,,SCT070,0.00,VWS V14.01,2013-07-07 17:38:00,
2013-07-07 13:44:00,90.3,73.0,30.10,East,97,6.0,22.0,57,0.00,,SCT070,0.00,VWS V14.01,2013-07-07 17:44:00,
2013-07-07 13:49:00,90.3,74.5,30.10,ENE,64,8.0,16.0,60,0.00,,SCT070,0.00,VWS V14.01,2013-07-07 17:49:00,
2013-07-07 13:54:00,90.6,72.8,30.10,ENE,61,20.0,20.0,56,0.00,,SCT070,0.00,VWS V14.01,2013-07-07 17:54:00,
2013-07-07 13:59:00,90.5,73.7,30.10,SE,134,16.0,20.0,58,0.00,,SCT070,0.00,VWS V14.01,2013-07-07 17:59:00,
2013-07-07 14:01:00,90.6,72.8,30.10,ESE,108,4.0,14.0,56,0.00,,SCT070,0.00,VWS V14.01,2013-07-07 18:01:00,
2013-07-07 14:06:00,90.7,72.9,30.10,East,94,8.0,14.0,56,0.00,,FEW045,0.00,VWS V14.01,2013-07-07 18:06:00,
2013-07-07 14:11:00,90.7,73.9,30.09,ESE,116,4.0,6.0,58,0.00,,FEW045,0.00,VWS V14.01,2013-07-07 18:11:00,
2013-07-07 14:16:00,90.7,72.9,30.09,NE,46,10.0,12.0,56,0.00,,FEW045,0.00,VWS V14.01,2013-07-07 18:16:00,
2013-07-07 14:21:00,90.9,72.5,30.09,East,83,2.0,16.0,55,0.00,,FEW045,0.00,VWS V14.01,2013-07-07 18:21:00,
2013-07-07 14:26:00,91.1,72.7,30.09,ESE,121,8.0,14.0,55,0.00,,FEW045,0.00,VWS V14.01,2013-07-07 18:26:00,
2013-07-07 14:31:00,91.3,73.4,30.09,ESE,102,6.0,10.0,56,0.00,,FEW045,0.00,VWS V14.01,2013-07-07 18:31:00,
2013-07-07 14:36:00,91.3,73.9,30.09,ESE,103,2.0,12.0,57,0.00,,FEW045,0.00,VWS V14.01,2013-07-07 18:36:00,
2013-07-07 14:41:00,91.0,73.1,30.09,ENE,59,14.0,14.0,56,0.00,,FEW045,0.00,VWS V14.01,2013-07-07 18:41:00,
2013-07-07 14:46:00,91.1,75.3,30.09,ENE,63,4.0,8.0,60,0.00,,FEW045,0.00,VWS V14.01,2013-07-07 18:46:00,
2013-07-07 14:52:00,91.0,74.2,30.09,ENE,59,14.0,14.0,58,0.00,,FEW045,0.00,VWS V14.01,2013-07-07 18:52:00,
2013-07-07 14:57:00,90.7,73.4,30.09,SSE,147,4.0,20.0,57,0.00,,FEW045,0.00,VWS V14.01,2013-07-07 18:57:00,
2013-07-07 15:02:00,90.3,73.5,30.09,ESE,116,2.0,10.0,58,0.00,,SCT040,0.00,VWS V14.01,2013-07-07 19:02:00,
2013-07-07 15:07:00,90.0,73.2,30.09,ENE,78,4.0,12.0,58,0.00,,SCT040,0.00,VWS V14.01,2013-07-07 19:07:00,
2013-07-07 15:12:00,89.4,73.2,30.09,ESE,118,4.0,16.0,59,0.00,,SCT040,0.00,VWS V14.01,2013-07-07 19:12:00,
2013-07-07 15:17:00,88.9,73.2,30.09,East,101,4.0,16.0,60,0.00,,SCT040,0.00,VWS V14.01,2013-07-07 19:17:00,
2013-07-07 15:22:00,89.3,72.6,30.08,ESE,121,8.0,20.0,58,0.00,,SCT040,0.00,VWS V14.01,2013-07-07 19:22:00,
2013-07-07 15:28:00,89.4,73.7,30.08,East,99,10.0,16.0,60,0.00,,SCT040,0.00,VWS V14.01,2013-07-07 19:28:00,
2013-07-07 15:33:00,89.4,73.2,30.08,South,175,2.0,14.0,59,0.00,,SCT040,0.00,VWS V14.01,2013-07-07 19:33:00,
2013-07-07 15:38:00,89.5,73.3,30.08,ESE,103,6.0,12.0,59,0.00,,SCT040,0.00,VWS V14.01,2013-07-07 19:38:00,
2013-07-07 15:43:00,90.2,73.4,30.08,East,83,12.0,16.0,58,0.00,,SCT040,0.00,VWS V14.01,2013-07-07 19:43:00,
2013-07-07 15:48:00,90.2,72.4,30.08,SSE,165,14.0,18.0,56,0.00,,SCT040,0.00,VWS V14.01,2013-07-07 19:48:00,
2013-07-07 15:53:00,90.4,73.1,30.08,East,93,10.0,16.0,57,0.00,,SCT040,0.00,VWS V14.01,2013-07-07 19:53:00,
2013-07-07 15:58:00,90.5,73.2,30.08,ESE,112,6.0,26.0,57,0.00,,SCT040,0.00,VWS V14.01,2013-07-07 19:58:00,
2013-07-07 16:03:00,90.6,72.8,30.08,ESE,116,8.0,14.0,56,0.00,,SCT043,0.00,VWS V14.01,2013-07-07 20:03:00,
2013-07-07 16:09:00,90.8,72.9,30.08,NE,43,6.0,12.0,56,0.00,,SCT043,0.00,VWS V14.01,2013-07-07 20:09:00,
2013-07-07 16:14:00,90.7,72.9,30.07,East,90,6.0,18.0,56,0.00,,SCT043,0.00,VWS V14.01,2013-07-07 20:14:00,
2013-07-07 16:19:00,90.7,71.2,30.07,East,84,6.0,16.0,53,0.00,,SCT043,0.00,VWS V14.01,2013-07-07 20:19:00,
2013-07-07 16:24:00,90.7,73.9,30.07,SE,124,2.0,14.0,58,0.00,,SCT043,0.00,VWS V14.01,2013-07-07 20:24:00,
2013-07-07 16:29:00,90.5,72.7,30.07,ESE,114,6.0,16.0,56,0.00,,SCT043,0.00,VWS V14.01,2013-07-07 20:29:00,
2013-07-07 16:34:00,90.1,72.8,30.07,ENE,58,8.0,20.0,57,0.00,,SCT043,0.00,VWS V14.01,2013-07-07 20:34:00,
2013-07-07 16:39:00,90.0,72.7,30.07,ENE,59,6.0,22.0,57,0.00,,SCT043,0.00,VWS V14.01,2013-07-07 20:39:00,
2013-07-07 16:44:00,90.1,72.8,30.07,ESE,111,18.0,20.0,57,0.00,,SCT043,0.00,VWS V14.01,2013-07-07 20:44:00,
2013-07-07 16:49:00,90.2,71.3,30.07,ESE,105,10.0,18.0,54,0.00,,SCT043,0.00,VWS V14.01,2013-07-07 20:49:00,
2013-07-07 16:54:00,90.2,70.8,30.06,ESE,115,4.0,6.0,53,0.00,,SCT043,0.00,VWS V14.01,2013-07-07 20:54:00,
2013-07-07 16:59:00,90.4,72.6,30.07,ESE,120,8.0,16.0,56,0.00,,SCT043,0.00,VWS V14.01,2013-07-07 20:59:00,
2013-07-07 17:05:00,90.4,72.6,30.06,SE,135,2.0,6.0,56,0.00,,SCT045,0.00,VWS V14.01,2013-07-07 21:05:00,
2013-07-07 17:10:00,90.0,72.2,30.06,ESE,104,4.0,8.0,56,0.00,,SCT045,0.00,VWS V14.01,2013-07-07 21:10:00,
2013-07-07 17:15:00,89.9,72.6,30.06,East,91,4.0,6.0,57,0.00,,SCT045,0.00,VWS V14.01,2013-07-07 21:15:00,
2013-07-07 17:20:00,90.1,73.8,30.06,East,89,6.0,10.0,59,0.00,,SCT045,0.00,VWS V14.01,2013-07-07 21:20:00,
2013-07-07 17:25:00,89.9,73.7,30.06,ENE,70,12.0,12.0,59,0.00,,SCT045,0.00,VWS V14.01,2013-07-07 21:25:00,
2013-07-07 17:30:00,89.2,73.0,30.06,ENE,62,8.0,10.0,59,0.00,,SCT045,0.00,VWS V14.01,2013-07-07 21:30:00,
2013-07-07 17:35:00,89.2,74.5,30.06,East,90,2.0,4.0,62,0.00,,SCT045,0.00,VWS V14.01,2013-07-07 21:35:00,
2013-07-07 17:41:00,89.4,75.6,30.06,ENE,78,4.0,14.0,64,0.00,,SCT045,0.00,VWS V14.01,2013-07-07 21:41:00,
2013-07-07 17:46:00,88.4,75.1,30.06,East,100,0.0,8.0,65,0.00,,SCT045,0.00,VWS V14.01,2013-07-07 21:46:00,
2013-07-07 17:51:00,87.3,73.6,30.06,ESE,112,6.0,14.0,64,0.00,,SCT045,0.00,VWS V14.01,2013-07-07 21:51:00,
2013-07-07 17:56:00,86.6,73.9,30.06,SE,126,0.0,10.0,66,0.00,,SCT045,0.00,VWS V14.01,2013-07-07 21:56:00,
2013-07-07 18:01:00,86.7,74.9,30.06,East,97,4.0,6.0,68,0.00,,SCT060,0.00,VWS V14.01,2013-07-07 22:01:00,
2013-07-07 18:06:00,87.5,74.8,30.06,East,86,4.0,18.0,66,0.00,,SCT060,0.00,VWS V14.01,2013-07-07 22:06:00,
2013-07-07 18:11:00,87.7,74.5,30.06,East,99,4.0,14.0,65,0.00,,SCT060,0.00,VWS V14.01,2013-07-07 22:11:00,
2013-07-07 18:16:00,87.8,75.0,30.06,ESE,102,2.0,14.0,66,0.00,,SCT060,0.00,VWS V14.01,2013-07-07 22:16:00,
2013-07-07 18:21:00,88.1,74.4,30.05,East,85,6.0,10.0,64,0.00,,SCT060,0.00,VWS V14.01,2013-07-07 22:21:00,
2013-07-07 18:27:00,88.3,74.6,30.05,East,93,6.0,24.0,64,0.00,,SCT060,0.00,VWS V14.01,2013-07-07 22:27:00,
2013-07-07 18:32:00,88.1,74.4,30.05,East,90,12.0,12.0,64,0.00,,SCT060,0.00,VWS V14.01,2013-07-07 22:32:00,
2013-07-07 18:37:00,87.9,74.7,30.05,ENE,58,4.0,8.0,65,0.00,,SCT060,0.00,VWS V14.01,2013-07-07 22:37:00,
2013-07-07 18:42:00,88.0,75.2,30.05,East,97,6.0,6.0,66,0.00,,SCT060,0.00,VWS V14.01,2013-07-07 22:42:00,
2013-07-07 18:47:00,88.0,74.8,30.05,East,93,14.0,18.0,65,0.00,,SCT060,0.00,VWS V14.01,2013-07-07 22:47:00,
2013-07-07 18:52:00,87.6,74.4,30.05,ENE,74,10.0,20.0,65,0.00,,SCT060,0.00,VWS V14.01,2013-07-07 22:52:00,
2013-07-07 18:57:00,87.0,73.8,30.06,East,79,10.0,16.0,65,0.00,,SCT060,0.00,VWS V14.01,2013-07-07 22:57:00,
2013-07-07 19:02:00,86.6,74.8,30.06,ENE,70,6.0,10.0,68,0.00,,SCT060,0.00,VWS V14.01,2013-07-07 23:02:00,
2013-07-07 19:08:00,86.5,74.7,30.06,ESE,104,10.0,14.0,68,0.00,,SCT060,0.00,VWS V14.01,2013-07-07 23:08:00,
2013-07-07 19:13:00,86.5,74.2,30.06,SE,125,4.0,10.0,67,0.00,,SCT060,0.00,VWS V14.01,2013-07-07 23:13:00,
2013-07-07 19:18:00,86.4,74.6,30.06,East,96,6.0,16.0,68,0.00,,SCT060,0.00,VWS V14.01,2013-07-07 23:18:00,
2013-07-07 19:23:00,86.0,74.2,30.06,East,97,2.0,16.0,68,0.00,,SCT060,0.00,VWS V14.01,2013-07-07 23:23:00,
2013-07-07 19:28:00,85.5,74.2,30.06,East,80,4.0,16.0,69,0.00,,SCT060,0.00,VWS V14.01,2013-07-07 23:28:00,
2013-07-07 19:33:00,85.2,73.9,30.07,ESE,107,0.0,12.0,69,0.00,,SCT060,0.00,VWS V14.01,2013-07-07 23:33:00,
2013-07-07 19:38:00,84.7,73.0,30.07,ESE,108,6.0,14.0,68,0.00,,SCT060,0.00,VWS V14.01,2013-07-07 23:38:00,
2013-07-07 19:43:00,84.4,73.1,30.07,ESE,109,2.0,14.0,69,0.00,,SCT060,0.00,VWS V14.01,2013-07-07 23:43:00,
2013-07-07 19:49:00,84.3,73.5,30.07,East,83,10.0,16.0,70,0.00,,SCT060,0.00,VWS V14.01,2013-07-07 23:49:00,
2013-07-07 19:54:00,84.1,72.8,30.08,ESE,112,8.0,16.0,69,0.00,,SCT060,0.00,VWS V14.01,2013-07-07 23:54:00,
2013-07-07 19:59:00,83.8,73.0,30.08,ESE,109,6.0,16.0,70,0.00,,SCT060,0.00,VWS V14.01,2013-07-07 23:59:00,
2013-07-07 20:04:00,83.6,73.2,30.08,ESE,105,2.0,6.0,71,0.00,,SCT070,0.00,VWS V14.01,2013-07-08 00:04:00,
2013-07-07 20:09:00,83.4,73.4,30.08,ESE,109,4.0,16.0,72,0.00,,SCT070,0.00,VWS V14.01,2013-07-08 00:09:00,
2013-07-07 20:14:00,83.3,72.9,30.08,ESE,103,4.0,12.0,71,0.00,,SCT070,0.00,VWS V14.01,2013-07-08 00:14:00,
2013-07-07 20:19:00,83.0,73.1,30.08,ESE,122,4.0,14.0,72,0.00,,SCT070,0.00,VWS V14.01,2013-07-08 00:19:00,
2013-07-07 20:24:00,82.8,73.3,30.08,East,86,6.0,10.0,73,0.00,,SCT070,0.00,VWS V14.01,2013-07-08 00:24:00,
2013-07-07 20:29:00,82.7,73.6,30.08,ESE,103,6.0,10.0,74,0.00,,SCT070,0.00,VWS V14.01,2013-07-08 00:29:00,
2013-07-07 20:34:00,82.7,73.6,30.08,SE,125,4.0,12.0,74,0.00,,SCT070,0.00,VWS V14.01,2013-07-08 00:34:00,
2013-07-07 20:39:00,82.5,73.8,30.09,ENE,74,2.0,6.0,75,0.00,,SCT070,0.00,VWS V14.01,2013-07-08 00:39:00,
2013-07-07 20:44:00,82.2,73.9,30.09,ESE,107,4.0,8.0,76,0.00,,SCT070,0.00,VWS V14.01,2013-07-08 00:44:00,
2013-07-07 20:50:00,82.2,73.9,30.09,East,91,2.0,4.0,76,0.00,,SCT070,0.00,VWS V14.01,2013-07-08 00:50:00,
2013-07-07 20:55:00,82.1,73.8,30.09,ESE,113,0.0,4.0,76,0.00,,SCT070,0.00,VWS V14.01,2013-07-08 00:55:00,
2013-07-07 20:56:00,82.0,73.7,30.09,East,96,4.0,4.0,76,0.00,,SCT070,0.00,VWS V14.01,2013-07-08 00:56:00,
2013-07-07 21:01:00,81.8,73.9,30.09,ESE,113,4.0,6.0,77,0.00,,SCT070,0.00,VWS V14.01,2013-07-08 01:01:00,
2013-07-07 21:06:00,81.6,74.1,30.10,ESE,122,4.0,4.0,78,0.00,,SCT070,0.00,VWS V14.01,2013-07-08 01:06:00,
2013-07-07 21:11:00,81.6,74.1,30.10,East,91,4.0,8.0,78,0.00,,SCT070,0.00,VWS V14.01,2013-07-08 01:11:00,
2013-07-07 21:16:00,81.5,74.4,30.10,East,93,2.0,2.0,79,0.00,,SCT070,0.00,VWS V14.01,2013-07-08 01:16:00,
2013-07-07 21:21:00,81.3,74.5,30.10,ENE,78,2.0,2.0,80,0.00,,SCT070,0.00,VWS V14.01,2013-07-08 01:21:00,
2013-07-07 21:26:00,81.1,74.3,30.10,East,96,4.0,4.0,80,0.00,,SCT070,0.00,VWS V14.01,2013-07-08 01:26:00,
2013-07-07 21:31:00,81.1,74.7,30.11,ESE,113,0.0,4.0,81,0.00,,SCT070,0.00,VWS V14.01,2013-07-08 01:31:00,
2013-07-07 21:36:00,80.9,74.5,30.11,ENE,72,2.0,4.0,81,0.00,,SCT070,0.00,VWS V14.01,2013-07-08 01:36:00,
2013-07-07 21:41:00,80.7,74.7,30.11,ENE,69,0.0,4.0,82,0.00,,SCT070,0.00,VWS V14.01,2013-07-08 01:41:00,
2013-07-07 21:47:00,80.6,74.6,30.11,ENE,73,0.0,4.0,82,0.00,,SCT070,0.00,VWS V14.01,2013-07-08 01:47:00,
2013-07-07 21:52:00,80.5,74.5,30.12,ESE,107,4.0,6.0,82,0.00,,SCT070,0.00,VWS V14.01,2013-07-08 01:52:00,
2013-07-07 21:57:00,80.4,74.8,30.12,ESE,111,0.0,0.0,83,0.00,,SCT070,0.00,VWS V14.01,2013-07-08 01:57:00,
2013-07-07 22:02:00,80.3,74.7,30.12,ESE,111,0.0,4.0,83,0.00,,FEW030,0.00,VWS V14.01,2013-07-08 02:02:00,
2013-07-07 22:07:00,80.1,74.8,30.12,ESE,111,0.0,4.0,84,0.00,,FEW030,0.00,VWS V14.01,2013-07-08 02:07:00,
2013-07-07 22:12:00,80.0,74.7,30.13,ESE,111,0.0,4.0,84,0.00,,FEW030,0.00,VWS V14.01,2013-07-08 02:12:00,
2013-07-07 22:17:00,79.8,74.5,30.13,ESE,111,0.0,4.0,84,0.00,,FEW030,0.00,VWS V14.01,2013-07-08 02:17:00,
2013-07-07 22:22:00,79.7,74.8,30.13,ESE,111,0.0,0.0,85,0.00,,FEW030,0.00,VWS V14.01,2013-07-08 02:22:00,
2013-07-07 22:28:00,79.7,74.8,30.13,ENE,78,2.0,6.0,85,0.00,,FEW030,0.00,VWS V14.01,2013-07-08 02:28:00,
2013-07-07 22:33:00,79.8,74.9,30.13,ENE,78,0.0,0.0,85,0.00,,FEW030,0.00,VWS V14.01,2013-07-08 02:33:00,
2013-07-07 22:38:00,79.8,74.9,30.13,ENE,78,0.0,0.0,85,0.00,,FEW030,0.00,VWS V14.01,2013-07-08 02:38:00,
2013-07-07 22:43:00,79.7,74.8,30.14,ENE,78,0.0,0.0,85,0.00,,FEW030,0.00,VWS V14.01,2013-07-08 02:43:00,
2013-07-07 22:48:00,79.6,74.7,30.14,ENE,78,0.0,0.0,85,0.00,,FEW030,0.00,VWS V14.01,2013-07-08 02:48:00,
2013-07-07 22:53:00,79.4,74.5,30.14,ENE,78,0.0,0.0,85,0.00,,FEW030,0.00,VWS V14.01,2013-07-08 02:53:00,
2013-07-07 22:58:00,79.3,74.8,30.14,ENE,78,0.0,0.0,86,0.00,,FEW030,0.00,VWS V14.01,2013-07-08 02:58:00,
2013-07-07 23:03:00,79.1,74.6,30.14,ENE,78,0.0,0.0,86,0.00,,FEW030,0.00,VWS V14.01,2013-07-08 03:03:00,
2013-07-07 23:09:00,79.0,74.8,30.14,ENE,78,0.0,0.0,87,0.00,,FEW030,0.00,VWS V14.01,2013-07-08 03:09:00,
2013-07-07 23:14:00,78.9,74.7,30.14,ENE,78,0.0,0.0,87,0.00,,FEW030,0.00,VWS V14.01,2013-07-08 03:14:00,
2013-07-07 23:19:00,78.8,74.6,30.14,ENE,78,0.0,2.0,87,0.00,,FEW030,0.00,VWS V14.01,2013-07-08 03:19:00,
2013-07-07 23:24:00,78.6,74.4,30.14,ENE,78,0.0,0.0,87,0.00,,FEW030,0.00,VWS V14.01,2013-07-08 03:24:00,
2013-07-07 23:29:00,78.5,74.3,30.15,ENE,78,0.0,0.0,87,0.00,,FEW030,0.00,VWS V14.01,2013-07-08 03:29:00,
2013-07-07 23:34:00,78.4,74.6,30.15,ENE,78,0.0,0.0,88,0.00,,FEW030,0.00,VWS V14.01,2013-07-08 03:34:00,
2013-07-07 23:39:00,78.3,74.5,30.15,ENE,78,0.0,2.0,88,0.00,,FEW030,0.00,VWS V14.01,2013-07-08 03:39:00,
2013-07-07 23:44:00,78.2,74.7,30.14,ENE,78,0.0,0.0,89,0.00,,FEW030,0.00,VWS V14.01,2013-07-08 03:44:00,
2013-07-07 23:49:00,78.1,74.6,30.14,ENE,78,0.0,0.0,89,0.00,,FEW030,0.00,VWS V14.01,2013-07-08 03:49:00,
2013-07-07 23:55:00,78.0,74.5,30.14,ENE,78,0.0,0.0,89,0.00,,FEW030,0.00,VWS V14.01,2013-07-08 03:55:00,